Herkenbosch, Netherlands
Current Conditions -  °F | °C
As of 7:50 PM on Saturday 25 Oct 2014 (Local Time) from EDLN Reporting Station
Broken Clouds Broken Clouds  
Wind Chill: 55°   Ceiling: 2600
Heat Index: 55°   Visibility: 5mi
Dew Point: 55°   Wind: 5mph
Humidity: 100%   Direction: 230°SW
Pressure: 30.15"   Gusts: NA
Location:  51.15°N, 6.06°E
Report Text: EDLN 251750Z 23004KT 180V290 8000 BKN026 13/13 Q1021 RMK ATIS Z
Loading
Personal Weather Stations






























Interactive Weather Map
Tropical Storm Tracking
New forecast layout! Learn more

10-Day Weather Forecast

Advertisements
Track Severe Weather on mobile